North Aurora, Illinois
Current Conditions -  °F | °C
As of 8:04 AM on Monday 24 Nov 2014 (Local Time) from KARR Reporting Station
Light Rain Light Rain  
Wind Chill: 30°   Ceiling: 700
Heat Index: 40°   Visibility: 3mi
Dew Point: 37°   Wind: 20mph
Humidity: 89%   Direction: 260°W
Pressure: 29.17"   Gusts: 31mph
Location:  41.81°N, 88.32°W
Report Text: KARR 241404Z 26017G27KT 3SM -RA BR BKN007 OVC012 04/03 A2917 RMK AO2 PK WND 26027/1404 CIG 005V009 P0001 T00440028
Loading
Personal Weather Stations






























Interactive Weather Map New forecast layout! Learn more

10-Day Weather Forecast

Advertisements
Track Severe Weather on mobile